Elk City, OK

3:38 PM CST on February 28, 2015 (GMT -0600)
Clinton-Sherman | Change Station
CLOSE
Current Station
Airport
Location: Clinton-Sherman,
Elevation: 1923 ft
Nearby Weather Stations
Active Advisory: Winter Weather Advisory Active Notice: Record Report, Local Storm Report

Elev 1923 ft 35.34 °N, 99.20 °W | Updated 45 minutes ago

Overcast
Overcast
23 °F
Feels Like 18 °F
N
4
Wind Variable Wind from SE

Today
High -- | Low -- °F
--% Chance of Precip.
Yesterday
High -- | Low -- °F
Precip. -- in
7:08 AM 6:31 PM
Waxing Gibbous, 80% visible
Pressure 30.33 in
Visibility 4.0 miles
Clouds Overcast 700 ft
Windchill 18 °F
Dew Point 19 °F
Humidity 85%
Rainfall 0.01 in
Snow Depth Not available.
UV 1 out of 12
Pollen .80 out of 12
Air Quality Not available.
Flu Activity Not available.
METAR KCSM 282053Z AUTO 13003KT 4SM BR OVC007 M05/M07 A3026 RMK AO2 SLP270 T10501072 58023

More Conditions Fewer Conditions

Pressure 30.33 in
Visibility 4.0 miles
Clouds Overcast 700 ft
Windchill 18 °F
Dew Point 19 °F
Humidity 85%
Rainfall 0.01 in
Snow Depth Not available.
UV 1 out of 12
Pollen .80 out of 12
Air Quality Not available.
Flu Activity Not available.
METAR KCSM 282053Z AUTO 13003KT 4SM BR OVC007 M05/M07 A3026 RMK AO2 SLP270 T10501072 58023

More Conditions Fewer Conditions

10-Day Weather Forecast

Almanac

Astronomy

Feb. 28, 2015 Rise Set
Actual Time
Civil Twilight
Nautical Twilight
Astronomical Twilight
Moon
Length of Visible Light
Length of Day
Tomorrow will be .
, % of the Moon is Illuminated

Today's Extremes

State Highs State Lows

Community

WunderPhotos

Upload Photos

1,801,158 photos uploaded!

WunderBlogs® & News

Nearby

Air Quality

  Air Quality AQ Index Pollutant
Not available.

Snow Depth

Station Depth Elevation

Earthquake Activity

City Distance Mag. Time & Date
Minimum magnitude displayed is 2.5.

Coastal Water Temperatures

Place Temperature

Nearby Weather Stations

Winter Weather Advisory
Statement as of 3:13 PM CST on February 28, 2015

... Winter Weather Advisory now in effect until 6 am CST Sunday...

The Winter Weather Advisory is now in effect until 6 am CST
Sunday.

* Main impact: patchy freezing drizzle and passing light freezing
rain showers will be possible through the night.

* Roads and walkways: roads and walkways will be slick and
hazardous.

Precautionary/preparedness actions...

Be careful if you have to travel. Even small amounts of ice and
snow can make roads and sidewalks slick and dangerous.